Time;durP1;ratioP1;P1;durP2;ratioP2;P2;SDS_P1;SDS_P2;PMS_P1;PMS_P2;Temp;Humidity;BMP_temperature;BMP_pressure;BME280_temperature;BME280_humidity;BME280_pressure;Samples;Min_cycle;Max_cycle;Signal;HPM_P1;HPM_P2
2020/12/31 00:01:07;;;;;;;2.13;1.80;;;;;;;18.66;48.29;99608.89;;;;-54
2020/12/31 00:04:07;;;;;;;1.80;1.70;;;;;;;18.64;48.30;99603.30;;;;-55
2020/12/31 00:07:07;;;;;;;1.87;1.73;;;;;;;18.61;48.28;99601.01;;;;-58
2020/12/31 00:10:07;;;;;;;2.27;1.76;;;;;;;18.59;48.27;99598.99;;;;-58
2020/12/31 00:13:07;;;;;;;2.33;1.81;;;;;;;18.58;48.30;99598.36;;;;-55
2020/12/31 00:16:07;;;;;;;2.19;1.99;;;;;;;18.56;48.25;99594.96;;;;-58
2020/12/31 00:19:07;;;;;;;1.94;1.84;;;;;;;18.54;48.28;99591.41;;;;-53
2020/12/31 00:22:07;;;;;;;2.07;1.86;;;;;;;18.52;48.29;99590.42;;;;-53
2020/12/31 00:25:07;;;;;;;1.80;1.63;;;;;;;18.51;48.28;99586.04;;;;-58
2020/12/31 00:28:07;;;;;;;1.82;1.72;;;;;;;18.48;48.32;99577.95;;;;-54
2020/12/31 00:31:07;;;;;;;2.11;1.91;;;;;;;18.47;48.33;99575.45;;;;-53
2020/12/31 00:34:07;;;;;;;2.04;1.84;;;;;;;18.45;48.25;99570.43;;;;-57
2020/12/31 00:37:07;;;;;;;2.03;1.83;;;;;;;18.43;48.31;99570.27;;;;-57
2020/12/31 00:40:07;;;;;;;2.04;1.84;;;;;;;18.41;48.34;99565.08;;;;-58
2020/12/31 00:43:07;;;;;;;2.01;1.64;;;;;;;18.39;48.28;99566.39;;;;-57
2020/12/31 00:46:07;;;;;;;1.99;1.79;;;;;;;18.38;48.32;99566.39;;;;-58
2020/12/31 00:49:07;;;;;;;2.13;1.80;;;;;;;18.36;48.33;99563.06;;;;-55
2020/12/31 00:52:07;;;;;;;2.05;1.80;;;;;;;18.34;48.35;99565.09;;;;-54
2020/12/31 00:55:07;;;;;;;1.84;1.74;;;;;;;18.33;48.34;99564.55;;;;-53
2020/12/31 00:58:07;;;;;;;1.91;1.78;;;;;;;18.31;48.35;99559.36;;;;-53
2020/12/31 01:01:07;;;;;;;1.89;1.79;;;;;;;18.30;48.32;99556.51;;;;-58
2020/12/31 01:04:07;;;;;;;1.89;1.79;;;;;;;18.28;48.33;99556.05;;;;-57
2020/12/31 01:07:07;;;;;;;2.00;1.80;;;;;;;18.26;48.38;99551.92;;;;-57
2020/12/31 01:10:07;;;;;;;1.95;1.75;;;;;;;18.25;48.37;99549.31;;;;-53
2020/12/31 01:13:07;;;;;;;1.83;1.70;;;;;;;18.24;48.43;99544.63;;;;-53
2020/12/31 01:16:07;;;;;;;1.85;1.71;;;;;;;18.22;48.44;99544.96;;;;-53
2020/12/31 01:19:07;;;;;;;1.91;1.72;;;;;;;18.20;48.39;99541.23;;;;-57
2020/12/31 01:22:07;;;;;;;1.89;1.74;;;;;;;18.19;48.43;99540.41;;;;-55
2020/12/31 01:25:07;;;;;;;2.02;1.88;;;;;;;18.18;48.52;99540.65;;;;-54
2020/12/31 01:28:07;;;;;;;1.77;1.67;;;;;;;18.17;48.46;99535.48;;;;-53
2020/12/31 01:31:07;;;;;;;2.00;1.80;;;;;;;18.15;48.46;99533.45;;;;-57
2020/12/31 01:34:07;;;;;;;1.91;1.75;;;;;;;18.14;48.44;99527.87;;;;-57
2020/12/31 01:37:07;;;;;;;1.77;1.67;;;;;;;18.13;48.45;99525.11;;;;-58
2020/12/31 01:40:07;;;;;;;1.83;1.73;;;;;;;18.12;48.47;99525.05;;;;-57
2020/12/31 01:43:07;;;;;;;1.99;1.87;;;;;;;18.09;48.50;99523.08;;;;-54
2020/12/31 01:46:07;;;;;;;2.09;1.93;;;;;;;18.08;48.51;99521.88;;;;-53
2020/12/31 01:49:07;;;;;;;1.90;1.80;;;;;;;18.07;48.52;99517.66;;;;-53
2020/12/31 01:52:07;;;;;;;1.89;1.79;;;;;;;18.05;48.52;99520.13;;;;-54
2020/12/31 01:55:07;;;;;;;1.73;1.63;;;;;;;18.04;48.52;99522.05;;;;-53
2020/12/31 01:58:07;;;;;;;1.93;1.70;;;;;;;18.03;48.49;99519.87;;;;-54
2020/12/31 02:01:07;;;;;;;1.95;1.75;;;;;;;18.01;48.48;99514.92;;;;-54
2020/12/31 02:04:07;;;;;;;1.90;1.80;;;;;;;17.99;48.50;99515.98;;;;-57
2020/12/31 02:07:07;;;;;;;1.82;1.72;;;;;;;17.98;48.50;99515.09;;;;-57
2020/12/31 02:10:07;;;;;;;1.80;1.70;;;;;;;17.96;48.50;99513.57;;;;-57
2020/12/31 02:13:07;;;;;;;1.87;1.73;;;;;;;17.95;48.45;99510.34;;;;-57
2020/12/31 02:16:07;;;;;;;2.01;1.84;;;;;;;17.93;48.45;99507.59;;;;-57
2020/12/31 02:19:07;;;;;;;1.83;1.73;;;;;;;17.93;48.50;99505.96;;;;-53
2020/12/31 02:22:07;;;;;;;1.80;1.70;;;;;;;17.92;48.55;99508.63;;;;-55
2020/12/31 02:25:07;;;;;;;1.99;1.83;;;;;;;17.92;48.55;99510.34;;;;-57
2020/12/31 02:28:07;;;;;;;1.90;1.80;;;;;;;17.90;48.46;99507.98;;;;-57
2020/12/31 02:31:07;;;;;;;1.85;1.75;;;;;;;17.89;48.50;99507.36;;;;-53
2020/12/31 02:34:07;;;;;;;1.95;1.75;;;;;;;17.88;48.55;99508.48;;;;-53
2020/12/31 02:37:07;;;;;;;2.07;1.82;;;;;;;17.87;48.58;99503.88;;;;-54
2020/12/31 02:40:07;;;;;;;2.03;1.83;;;;;;;17.86;48.50;99505.23;;;;-55
2020/12/31 02:43:07;;;;;;;1.90;1.80;;;;;;;17.85;48.55;99500.80;;;;-56
2020/12/31 02:46:07;;;;;;;1.93;1.79;;;;;;;17.84;48.51;99499.40;;;;-56
2020/12/31 02:49:07;;;;;;;1.89;1.79;;;;;;;17.83;48.51;99494.23;;;;-56
2020/12/31 02:52:07;;;;;;;1.81;1.71;;;;;;;17.83;48.50;99498.05;;;;-54
2020/12/31 02:55:07;;;;;;;1.93;1.83;;;;;;;17.81;48.52;99498.34;;;;-54
2020/12/31 02:58:07;;;;;;;1.89;1.79;;;;;;;17.80;48.53;99497.92;;;;-53
2020/12/31 03:01:07;;;;;;;1.99;1.79;;;;;;;17.79;48.50;99498.59;;;;-54
2020/12/31 03:04:07;;;;;;;1.97;1.86;;;;;;;17.78;48.52;99491.45;;;;-53
2020/12/31 03:07:07;;;;;;;1.88;1.75;;;;;;;17.76;48.55;99487.66;;;;-53
2020/12/31 03:10:07;;;;;;;1.80;1.70;;;;;;;17.76;48.53;99484.42;;;;-53
2020/12/31 03:13:07;;;;;;;1.73;1.63;;;;;;;17.75;48.45;99477.85;;;;-53
2020/12/31 03:16:07;;;;;;;1.97;1.80;;;;;;;17.74;48.57;99478.75;;;;-53
2020/12/31 03:19:07;;;;;;;1.76;1.66;;;;;;;17.73;48.48;99472.84;;;;-53
2020/12/31 03:22:07;;;;;;;1.84;1.74;;;;;;;17.72;48.52;99468.39;;;;-57
2020/12/31 03:25:07;;;;;;;1.97;1.84;;;;;;;17.71;48.52;99466.77;;;;-54
2020/12/31 03:28:07;;;;;;;1.81;1.71;;;;;;;17.70;48.54;99464.97;;;;-54
2020/12/31 03:31:07;;;;;;;1.83;1.73;;;;;;;17.69;48.55;99461.42;;;;-54
2020/12/31 03:34:07;;;;;;;1.88;1.78;;;;;;;17.67;48.55;99457.12;;;;-54
2020/12/31 03:37:07;;;;;;;1.87;1.77;;;;;;;17.66;48.54;99452.11;;;;-54
2020/12/31 03:40:07;;;;;;;1.71;1.61;;;;;;;17.65;48.45;99447.65;;;;-53
2020/12/31 03:43:07;;;;;;;1.83;1.73;;;;;;;17.65;48.49;99443.36;;;;-54
2020/12/31 03:46:07;;;;;;;1.76;1.66;;;;;;;17.64;48.50;99442.48;;;;-55
2020/12/31 03:49:07;;;;;;;2.04;1.83;;;;;;;17.63;48.47;99437.62;;;;-55
2020/12/31 03:52:07;;;;;;;1.90;1.80;;;;;;;17.61;48.59;99436.80;;;;-55
2020/12/31 03:55:07;;;;;;;1.80;1.70;;;;;;;17.61;48.55;99434.87;;;;-54
2020/12/31 03:58:07;;;;;;;2.03;1.86;;;;;;;17.60;48.54;99435.52;;;;-57
2020/12/31 04:01:07;;;;;;;2.13;1.95;;;;;;;17.58;48.50;99429.36;;;;-53
2020/12/31 04:04:07;;;;;;;1.73;1.63;;;;;;;17.57;48.52;99426.03;;;;-55
2020/12/31 04:07:07;;;;;;;1.81;1.71;;;;;;;17.56;48.55;99421.10;;;;-54
2020/12/31 04:10:07;;;;;;;1.84;1.70;;;;;;;17.55;48.53;99422.55;;;;-55
2020/12/31 04:13:07;;;;;;;1.90;1.80;;;;;;;17.55;48.57;99422.55;;;;-57
2020/12/31 04:16:07;;;;;;;1.81;1.70;;;;;;;17.53;48.52;99419.48;;;;-53
2020/12/31 04:19:07;;;;;;;1.75;1.65;;;;;;;17.53;48.55;99421.10;;;;-57
2020/12/31 04:22:07;;;;;;;1.89;1.77;;;;;;;17.52;48.54;99414.24;;;;-57
2020/12/31 04:25:07;;;;;;;1.85;1.75;;;;;;;17.50;48.55;99412.38;;;;-53
2020/12/31 04:28:07;;;;;;;1.81;1.71;;;;;;;17.50;48.52;99409.62;;;;-55
2020/12/31 04:31:07;;;;;;;1.71;1.61;;;;;;;17.49;48.53;99404.91;;;;-54
2020/12/31 04:34:07;;;;;;;1.75;1.65;;;;;;;17.47;48.51;99399.59;;;;-53
2020/12/31 04:37:07;;;;;;;1.59;1.49;;;;;;;17.47;48.54;99396.73;;;;-53
2020/12/31 04:40:07;;;;;;;1.70;1.60;;;;;;;17.46;48.51;99392.30;;;;-54
2020/12/31 04:43:07;;;;;;;1.69;1.57;;;;;;;17.45;48.59;99393.98;;;;-54
2020/12/31 04:46:08;;;;;;;1.72;1.62;;;;;;;17.45;48.50;99392.20;;;;-57
2020/12/31 04:49:07;;;;;;;1.69;1.59;;;;;;;17.44;48.50;99388.65;;;;-54
2020/12/31 04:52:07;;;;;;;1.63;1.53;;;;;;;17.43;48.57;99390.21;;;;-57
2020/12/31 04:55:07;;;;;;;1.82;1.61;;;;;;;17.41;48.60;99385.59;;;;-57
2020/12/31 04:58:07;;;;;;;1.77;1.67;;;;;;;17.41;48.53;99383.97;;;;-53
2020/12/31 05:01:07;;;;;;;1.70;1.60;;;;;;;17.39;48.49;99382.03;;;;-54
2020/12/31 05:04:07;;;;;;;1.69;1.59;;;;;;;17.38;48.49;99384.05;;;;-53
2020/12/31 05:07:07;;;;;;;1.60;1.50;;;;;;;17.38;48.50;99380.41;;;;-53
2020/12/31 05:10:07;;;;;;;1.77;1.67;;;;;;;17.37;48.53;99374.18;;;;-53
2020/12/31 05:13:07;;;;;;;1.68;1.58;;;;;;;17.36;48.47;99373.86;;;;-57
2020/12/31 05:16:07;;;;;;;1.57;1.45;;;;;;;17.34;48.52;99372.72;;;;-57
2020/12/31 05:19:07;;;;;;;1.71;1.61;;;;;;;17.33;48.53;99371.92;;;;-53
2020/12/31 05:22:07;;;;;;;1.60;1.50;;;;;;;17.32;48.58;99373.69;;;;-52
2020/12/31 05:25:07;;;;;;;1.70;1.60;;;;;;;17.32;48.53;99374.19;;;;-57
2020/12/31 05:28:07;;;;;;;1.60;1.50;;;;;;;17.31;48.52;99370.88;;;;-57
2020/12/31 05:31:07;;;;;;;1.82;1.72;;;;;;;17.30;48.52;99368.03;;;;-57
2020/12/31 05:34:07;;;;;;;1.76;1.66;;;;;;;17.30;48.47;99374.27;;;;-57
2020/12/31 05:37:07;;;;;;;1.84;1.69;;;;;;;17.29;48.49;99368.94;;;;-54
2020/12/31 05:40:07;;;;;;;1.61;1.51;;;;;;;17.28;48.47;99360.50;;;;-53
2020/12/31 05:43:07;;;;;;;1.79;1.69;;;;;;;17.28;48.55;99364.31;;;;-52
2020/12/31 05:46:07;;;;;;;1.72;1.62;;;;;;;17.27;48.49;99366.27;;;;-54
2020/12/31 05:49:08;;;;;;;1.68;1.58;;;;;;;17.27;48.51;99364.01;;;;-54
2020/12/31 05:52:08;;;;;;;1.65;1.55;;;;;;;17.26;48.55;99366.66;;;;-54
2020/12/31 05:55:08;;;;;;;1.75;1.65;;;;;;;17.26;48.48;99363.19;;;;-52
2020/12/31 05:58:07;;;;;;;1.69;1.59;;;;;;;17.24;48.49;99365.70;;;;-53
2020/12/31 06:01:07;;;;;;;1.59;1.49;;;;;;;17.23;48.45;99362.79;;;;-54
2020/12/31 06:04:07;;;;;;;1.60;1.50;;;;;;;17.24;48.48;99358.92;;;;-53
2020/12/31 06:07:07;;;;;;;1.70;1.60;;;;;;;17.23;48.51;99361.74;;;;-54
2020/12/31 06:10:07;;;;;;;1.70;1.60;;;;;;;17.22;48.45;99357.68;;;;-54
2020/12/31 06:13:07;;;;;;;1.67;1.57;;;;;;;17.23;48.38;99359.31;;;;-55
2020/12/31 06:16:07;;;;;;;1.70;1.60;;;;;;;17.23;48.50;99357.28;;;;-53
2020/12/31 06:19:07;;;;;;;1.70;1.60;;;;;;;17.25;48.52;99353.48;;;;-54
2020/12/31 06:22:07;;;;;;;1.67;1.57;;;;;;;17.25;48.50;99349.77;;;;-57
2020/12/31 06:25:07;;;;;;;1.65;1.55;;;;;;;17.25;48.48;99348.31;;;;-57
2020/12/31 06:28:07;;;;;;;1.75;1.65;;;;;;;17.25;48.50;99353.07;;;;-54
2020/12/31 06:31:07;;;;;;;1.70;1.60;;;;;;;17.27;48.50;99357.20;;;;-53
2020/12/31 06:34:07;;;;;;;2.65;1.55;;;;;;;17.29;48.68;99356.80;;;;-56
2020/12/31 06:37:07;;;;;;;1.79;1.69;;;;;;;17.34;48.74;99357.98;;;;-51
2020/12/31 06:40:07;;;;;;;1.96;1.60;;;;;;;17.39;48.94;99358.39;;;;-53
2020/12/31 06:43:07;;;;;;;1.69;1.59;;;;;;;17.44;49.02;99355.78;;;;-59
2020/12/31 06:46:07;;;;;;;1.76;1.66;;;;;;;17.49;49.08;99357.64;;;;-59
2020/12/31 06:49:07;;;;;;;2.47;1.69;;;;;;;17.53;49.05;99354.35;;;;-55
2020/12/31 06:52:07;;;;;;;3.38;1.55;;;;;;;17.60;49.13;99354.27;;;;-56
2020/12/31 06:55:07;;;;;;;1.70;1.60;;;;;;;17.67;49.12;99351.30;;;;-58
2020/12/31 06:58:07;;;;;;;1.63;1.53;;;;;;;17.73;49.14;99352.11;;;;-58
2020/12/31 07:01:07;;;;;;;1.85;1.50;;;;;;;17.78;49.28;99351.91;;;;-54
2020/12/31 07:04:07;;;;;;;1.64;1.54;;;;;;;17.83;49.22;99348.95;;;;-59
2020/12/31 07:07:07;;;;;;;1.65;1.50;;;;;;;17.88;49.28;99345.34;;;;-55
2020/12/31 07:10:07;;;;;;;1.65;1.50;;;;;;;17.91;49.13;99340.53;;;;-58
2020/12/31 07:13:07;;;;;;;2.03;1.62;;;;;;;17.93;49.26;99344.11;;;;-57
2020/12/31 07:16:07;;;;;;;1.77;1.62;;;;;;;17.96;49.21;99345.61;;;;-54
2020/12/31 07:19:07;;;;;;;2.44;1.63;;;;;;;17.99;49.06;99342.34;;;;-53
2020/12/31 07:22:07;;;;;;;2.85;1.57;;;;;;;17.98;48.74;99344.63;;;;-54
2020/12/31 07:25:08;;;;;;;2.06;1.83;;;;;;;18.00;48.62;99345.60;;;;-57
2020/12/31 07:28:07;;;;;;;2.30;1.81;;;;;;;18.00;48.40;99343.50;;;;-53
2020/12/31 07:31:07;;;;;;;2.68;1.70;;;;;;;18.01;48.33;99341.86;;;;-57
2020/12/31 07:34:07;;;;;;;1.77;1.65;;;;;;;18.02;48.14;99345.75;;;;-52
2020/12/31 07:37:07;;;;;;;4.21;1.86;;;;;;;18.02;48.01;99342.19;;;;-50
2020/12/31 07:40:07;;;;;;;2.34;1.82;;;;;;;18.02;47.89;99342.59;;;;-50
2020/12/31 07:43:07;;;;;;;3.17;1.77;;;;;;;18.04;48.00;99342.83;;;;-51
2020/12/31 07:46:07;;;;;;;5.62;1.90;;;;;;;18.04;48.21;99339.91;;;;-51
2020/12/31 07:49:07;;;;;;;5.25;1.74;;;;;;;18.03;48.67;99334.95;;;;-50
2020/12/31 07:52:07;;;;;;;5.45;1.81;;;;;;;18.06;48.61;99331.14;;;;-53
2020/12/31 07:55:07;;;;;;;4.51;1.88;;;;;;;18.05;48.29;99325.86;;;;-57
2020/12/31 07:58:07;;;;;;;3.03;1.89;;;;;;;18.03;48.24;99322.49;;;;-53
2020/12/31 08:01:07;;;;;;;2.02;1.74;;;;;;;18.02;48.21;99325.17;;;;-53
2020/12/31 08:04:07;;;;;;;2.42;1.86;;;;;;;18.01;48.15;99319.73;;;;-52
2020/12/31 08:07:07;;;;;;;2.49;1.83;;;;;;;17.98;48.16;99315.13;;;;-52
2020/12/31 08:10:08;;;;;;;2.26;1.63;;;;;;;17.97;48.11;99313.36;;;;-53
2020/12/31 08:13:07;;;;;;;2.58;1.81;;;;;;;17.97;48.17;99312.30;;;;-53
2020/12/31 08:16:08;;;;;;;2.75;1.99;;;;;;;17.95;48.18;99311.27;;;;-53
2020/12/31 08:19:07;;;;;;;2.78;1.79;;;;;;;17.94;48.08;99309.08;;;;-53
2020/12/31 08:22:07;;;;;;;2.97;1.95;;;;;;;17.92;48.09;99308.84;;;;-57
2020/12/31 08:25:07;;;;;;;1.80;1.70;;;;;;;17.92;48.09;99309.65;;;;-57
2020/12/31 08:28:07;;;;;;;1.69;1.59;;;;;;;17.91;48.06;99310.16;;;;-56
2020/12/31 08:31:07;;;;;;;2.11;1.72;;;;;;;17.90;48.13;99314.86;;;;-57
2020/12/31 08:34:07;;;;;;;1.99;1.70;;;;;;;17.89;48.09;99316.33;;;;-56
2020/12/31 08:37:07;;;;;;;2.52;1.69;;;;;;;17.88;48.10;99320.37;;;;-53
2020/12/31 08:40:07;;;;;;;2.39;1.70;;;;;;;17.88;48.09;99319.56;;;;-53
2020/12/31 08:43:07;;;;;;;1.99;1.63;;;;;;;17.87;48.05;99318.85;;;;-54
2020/12/31 08:46:07;;;;;;;3.01;1.75;;;;;;;17.86;48.19;99300.44;;;;-51
2020/12/31 08:49:07;;;;;;;2.43;1.70;;;;;;;17.88;48.41;99315.02;;;;-53
2020/12/31 08:52:07;;;;;;;2.29;1.70;;;;;;;17.92;48.60;99319.06;;;;-53
2020/12/31 08:55:07;;;;;;;2.72;1.79;;;;;;;17.96;48.79;99322.28;;;;-56
2020/12/31 08:58:07;;;;;;;2.50;1.81;;;;;;;18.01;48.99;99321.67;;;;-52
2020/12/31 09:01:07;;;;;;;1.71;1.61;;;;;;;18.05;48.92;99333.66;;;;-54
2020/12/31 09:04:07;;;;;;;3.12;1.78;;;;;;;18.11;49.00;99339.04;;;;-52
2020/12/31 09:07:07;;;;;;;2.33;1.76;;;;;;;18.15;48.86;99344.45;;;;-57
2020/12/31 09:10:07;;;;;;;2.06;1.86;;;;;;;18.22;48.94;99347.81;;;;-58
2020/12/31 09:13:09;;;;;;;3.69;1.71;;;;;;;18.25;48.73;99344.96;;;;-57
2020/12/31 09:16:07;;;;;;;2.69;1.89;;;;;;;18.27;48.61;99347.55;;;;-59
2020/12/31 09:19:07;;;;;;;2.58;1.77;;;;;;;18.33;48.74;99349.21;;;;-57
2020/12/31 09:22:07;;;;;;;2.54;1.93;;;;;;;18.37;48.56;99349.92;;;;-57
2020/12/31 09:25:07;;;;;;;2.95;1.87;;;;;;;18.39;48.50;99350.63;;;;-56
2020/12/31 09:28:07;;;;;;;1.97;1.77;;;;;;;18.41;48.51;99347.70;;;;-50
2020/12/31 09:31:07;;;;;;;2.57;1.81;;;;;;;18.42;48.49;99346.30;;;;-53
2020/12/31 09:34:07;;;;;;;2.52;1.95;;;;;;;18.45;48.61;99343.61;;;;-52
2020/12/31 09:37:07;;;;;;;3.57;1.82;;;;;;;18.50;48.76;99344.06;;;;-53
2020/12/31 09:40:07;;;;;;;2.63;1.92;;;;;;;18.54;48.84;99341.03;;;;-54
2020/12/31 09:43:07;;;;;;;2.95;1.98;;;;;;;18.56;48.97;99335.58;;;;-52
2020/12/31 09:46:07;;;;;;;2.81;1.95;;;;;;;18.58;49.00;99335.24;;;;-52
2020/12/31 09:49:07;;;;;;;2.61;1.90;;;;;;;18.59;48.98;99331.08;;;;-55
2020/12/31 09:52:07;;;;;;;4.57;1.71;;;;;;;18.63;48.91;99329.58;;;;-59
2020/12/31 09:55:07;;;;;;;3.97;1.95;;;;;;;18.64;48.61;99326.68;;;;-58
2020/12/31 09:58:07;;;;;;;2.63;1.62;;;;;;;18.63;48.57;99322.68;;;;-59
2020/12/31 10:01:07;;;;;;;2.56;1.97;;;;;;;18.67;48.60;99324.69;;;;-55
2020/12/31 10:04:07;;;;;;;3.12;1.99;;;;;;;18.70;48.95;99317.70;;;;-50
2020/12/31 10:07:07;;;;;;;2.67;2.06;;;;;;;18.73;49.11;99317.50;;;;-48
2020/12/31 10:10:07;;;;;;;2.86;2.07;;;;;;;18.76;49.09;99313.34;;;;-54
2020/12/31 10:13:07;;;;;;;2.92;1.93;;;;;;;18.79;48.99;99307.66;;;;-49
2020/12/31 10:16:07;;;;;;;2.44;1.83;;;;;;;18.82;49.10;99306.56;;;;-45
2020/12/31 10:19:07;;;;;;;4.28;1.99;;;;;;;18.85;49.34;99301.75;;;;-45
2020/12/31 10:22:07;;;;;;;2.28;1.80;;;;;;;18.88;49.21;99300.00;;;;-51
2020/12/31 10:25:07;;;;;;;2.01;1.77;;;;;;;18.92;49.29;99296.08;;;;-52
2020/12/31 10:28:07;;;;;;;2.61;2.18;;;;;;;18.95;49.32;99289.33;;;;-48
2020/12/31 10:31:07;;;;;;;2.27;1.79;;;;;;;18.96;49.24;99285.39;;;;-59
2020/12/31 10:34:07;;;;;;;2.31;1.74;;;;;;;18.97;49.13;99278.98;;;;-51
2020/12/31 10:37:07;;;;;;;2.12;1.70;;;;;;;18.99;49.16;99277.11;;;;-50
2020/12/31 10:40:07;;;;;;;3.51;1.81;;;;;;;19.02;49.17;99265.94;;;;-48
2020/12/31 10:43:07;;;;;;;2.97;1.70;;;;;;;19.04;49.17;99269.73;;;;-51
2020/12/31 10:46:07;;;;;;;2.24;1.83;;;;;;;19.06;49.26;99269.22;;;;-51
2020/12/31 10:49:07;;;;;;;2.01;1.72;;;;;;;19.07;49.08;99251.83;;;;-54
2020/12/31 10:52:07;;;;;;;2.00;1.80;;;;;;;19.09;49.12;99255.70;;;;-59
2020/12/31 10:55:07;;;;;;;2.71;1.99;;;;;;;19.11;48.86;99256.43;;;;-52
2020/12/31 10:58:07;;;;;;;4.37;1.90;;;;;;;19.11;49.03;99246.69;;;;-52
2020/12/31 11:01:07;;;;;;;2.31;1.82;;;;;;;19.14;49.16;99244.63;;;;-53
2020/12/31 11:04:07;;;;;;;2.21;1.83;;;;;;;19.16;49.19;99238.99;;;;-50
2020/12/31 11:07:07;;;;;;;1.80;1.70;;;;;;;19.20;49.06;99233.19;;;;-51
2020/12/31 11:10:07;;;;;;;2.17;1.78;;;;;;;19.20;49.12;99241.13;;;;-52
2020/12/31 11:13:07;;;;;;;2.19;1.93;;;;;;;19.22;49.02;99247.77;;;;-51
2020/12/31 11:16:07;;;;;;;2.19;1.85;;;;;;;19.24;49.15;99233.63;;;;-51
2020/12/31 11:19:07;;;;;;;3.53;1.68;;;;;;;19.25;48.73;99225.23;;;;-51
2020/12/31 11:22:09;;;;;;;2.04;1.81;;;;;;;19.24;48.57;99229.55;;;;-51
2020/12/31 11:25:07;;;;;;;3.29;1.85;;;;;;;19.22;48.43;99225.36;;;;-51
2020/12/31 11:28:07;;;;;;;2.26;1.80;;;;;;;19.21;48.34;99220.08;;;;-51
2020/12/31 11:31:09;;;;;;;2.11;1.89;;;;;;;19.20;48.27;99217.83;;;;-50
2020/12/31 11:34:07;;;;;;;1.85;1.63;;;;;;;19.18;48.23;99213.62;;;;-51
2020/12/31 11:37:07;;;;;;;2.07;1.67;;;;;;;19.18;48.24;99206.25;;;;-51
2020/12/31 11:40:07;;;;;;;1.80;1.70;;;;;;;19.17;48.20;99201.36;;;;-51
2020/12/31 11:43:07;;;;;;;3.43;1.63;;;;;;;19.16;48.15;99196.11;;;;-51
2020/12/31 11:46:07;;;;;;;1.90;1.71;;;;;;;19.15;48.10;99191.66;;;;-51
2020/12/31 11:49:07;;;;;;;2.92;1.74;;;;;;;19.15;48.07;99193.03;;;;-47
2020/12/31 11:52:07;;;;;;;1.81;1.69;;;;;;;19.15;48.01;99187.11;;;;-47
2020/12/31 11:55:07;;;;;;;2.61;1.78;;;;;;;19.14;47.95;99181.92;;;;-48
2020/12/31 11:58:07;;;;;;;2.29;1.70;;;;;;;19.13;47.99;99179.75;;;;-48
2020/12/31 12:01:07;;;;;;;3.59;1.87;;;;;;;19.14;47.95;99178.20;;;;-47
2020/12/31 12:04:07;;;;;;;1.95;1.70;;;;;;;19.13;47.89;99168.06;;;;-60
2020/12/31 12:07:07;;;;;;;2.67;1.69;;;;;;;19.12;47.94;99167.25;;;;-51
2020/12/31 12:10:07;;;;;;;2.02;1.70;;;;;;;19.13;47.96;99160.50;;;;-52
2020/12/31 12:13:07;;;;;;;1.78;1.67;;;;;;;19.13;47.93;99160.50;;;;-47
2020/12/31 12:16:07;;;;;;;1.76;1.63;;;;;;;19.13;47.87;99160.89;;;;-48
2020/12/31 12:19:09;;;;;;;2.21;1.81;;;;;;;19.12;47.93;99157.91;;;;-48
2020/12/31 12:22:07;;;;;;;1.91;1.77;;;;;;;19.13;47.90;99158.30;;;;-47
2020/12/31 12:25:07;;;;;;;2.01;1.81;;;;;;;19.13;47.86;99159.19;;;;-48
2020/12/31 12:28:07;;;;;;;2.93;1.89;;;;;;;19.13;47.89;99159.45;;;;-51
2020/12/31 12:31:07;;;;;;;2.67;1.80;;;;;;;19.15;47.89;99155.59;;;;-58
2020/12/31 12:34:07;;;;;;;1.87;1.73;;;;;;;19.15;47.81;99155.59;;;;-59
2020/12/31 12:37:07;;;;;;;1.71;1.61;;;;;;;19.14;47.79;99154.71;;;;-58
2020/12/31 12:40:07;;;;;;;1.94;1.75;;;;;;;19.15;47.85;99151.14;;;;-59
2020/12/31 12:43:07;;;;;;;1.84;1.71;;;;;;;19.15;47.80;99151.52;;;;-59
2020/12/31 12:46:07;;;;;;;1.85;1.74;;;;;;;19.16;47.81;99149.92;;;;-51
2020/12/31 12:49:07;;;;;;;1.72;1.61;;;;;;;19.16;47.80;99144.38;;;;-47
2020/12/31 12:52:07;;;;;;;1.80;1.70;;;;;;;19.16;47.84;99142.93;;;;-51
2020/12/31 12:55:07;;;;;;;1.88;1.78;;;;;;;19.16;47.76;99136.84;;;;-51
2020/12/31 12:58:07;;;;;;;1.88;1.78;;;;;;;19.16;47.88;99138.30;;;;-51
2020/12/31 13:01:07;;;;;;;1.81;1.71;;;;;;;19.16;47.71;99134.88;;;;-50
2020/12/31 13:04:07;;;;;;;1.79;1.69;;;;;;;19.16;47.79;99133.73;;;;-51
2020/12/31 13:07:07;;;;;;;1.65;1.55;;;;;;;19.17;47.79;99129.90;;;;-59
2020/12/31 13:10:07;;;;;;;1.85;1.71;;;;;;;19.17;47.86;99129.66;;;;-59
2020/12/31 13:13:07;;;;;;;1.80;1.70;;;;;;;19.17;47.74;99121.72;;;;-58
2020/12/31 13:16:07;;;;;;;1.88;1.62;;;;;;;19.18;47.86;99125.84;;;;-58
2020/12/31 13:19:07;;;;;;;2.03;1.81;;;;;;;19.19;47.86;99123.06;;;;-47
2020/12/31 13:22:07;;;;;;;2.34;2.00;;;;;;;19.22;48.26;99121.08;;;;-51
2020/12/31 13:25:07;;;;;;;4.22;1.98;;;;;;;19.27;48.58;99116.54;;;;-50
2020/12/31 13:28:07;;;;;;;2.03;1.84;;;;;;;19.31;48.69;99123.54;;;;-51
2020/12/31 13:31:07;;;;;;;2.45;1.95;;;;;;;19.33;48.96;99124.23;;;;-52
2020/12/31 13:34:07;;;;;;;2.07;1.80;;;;;;;19.37;49.10;99118.48;;;;-49
2020/12/31 13:37:07;;;;;;;1.98;1.78;;;;;;;19.39;49.04;99118.78;;;;-48
2020/12/31 13:40:07;;;;;;;3.61;1.81;;;;;;;19.41;48.77;99115.28;;;;-51
2020/12/31 13:43:07;;;;;;;3.29;1.80;;;;;;;19.43;49.05;99114.69;;;;-56
2020/12/31 13:46:07;;;;;;;2.70;1.93;;;;;;;19.44;49.50;99110.91;;;;-51
2020/12/31 13:49:07;;;;;;;1.95;1.75;;;;;;;19.47;49.41;99113.33;;;;-53
2020/12/31 13:52:07;;;;;;;2.42;1.87;;;;;;;19.48;49.98;99109.06;;;;-50
2020/12/31 13:55:07;;;;;;;2.19;1.82;;;;;;;19.50;49.55;99109.86;;;;-51
2020/12/31 13:58:07;;;;;;;2.88;1.93;;;;;;;19.49;49.32;99113.52;;;;-51
2020/12/31 14:01:07;;;;;;;1.95;1.64;;;;;;;19.51;49.39;99107.97;;;;-55
2020/12/31 14:04:09;;;;;;;3.20;1.88;;;;;;;19.52;49.26;99110.47;;;;-45
2020/12/31 14:07:07;;;;;;;1.75;1.65;;;;;;;19.53;49.14;99115.57;;;;-45
2020/12/31 14:10:07;;;;;;;2.26;1.93;;;;;;;19.51;49.15;99114.47;;;;-57
2020/12/31 14:13:07;;;;;;;4.40;1.89;;;;;;;19.51;48.81;99116.41;;;;-47
2020/12/31 14:16:07;;;;;;;9.26;3.39;;;;;;;19.23;45.16;99115.77;;;;-51
2020/12/31 14:19:07;;;;;;;5.25;4.07;;;;;;;18.99;45.46;99112.47;;;;-52
2020/12/31 14:22:08;;;;;;;5.51;3.19;;;;;;;19.09;46.61;99110.95;;;;-51
2020/12/31 14:25:07;;;;;;;3.92;3.15;;;;;;;19.18;46.92;99113.09;;;;-52
2020/12/31 14:28:07;;;;;;;5.47;3.13;;;;;;;19.25;47.07;99110.87;;;;-57
2020/12/31 14:31:07;;;;;;;2.94;2.64;;;;;;;19.29;47.04;99110.00;;;;-56
2020/12/31 14:34:07;;;;;;;4.93;2.77;;;;;;;19.35;47.28;99116.51;;;;-52
2020/12/31 14:37:07;;;;;;;5.27;2.51;;;;;;;19.38;47.44;99113.11;;;;-52
2020/12/31 14:40:07;;;;;;;3.06;2.39;;;;;;;19.40;47.58;99111.23;;;;-58
2020/12/31 14:43:07;;;;;;;3.61;2.40;;;;;;;19.43;47.53;99110.55;;;;-52
2020/12/31 14:46:07;;;;;;;2.46;2.12;;;;;;;19.45;47.56;99110.52;;;;-51
2020/12/31 14:49:07;;;;;;;3.61;2.37;;;;;;;19.46;47.67;99110.33;;;;-51
2020/12/31 14:52:07;;;;;;;2.53;2.33;;;;;;;19.49;47.88;99107.44;;;;-55
2020/12/31 14:55:07;;;;;;;3.82;2.38;;;;;;;19.51;47.98;99110.51;;;;-53
2020/12/31 14:58:07;;;;;;;2.79;2.29;;;;;;;19.52;48.04;99105.75;;;;-56
2020/12/31 15:01:07;;;;;;;3.89;2.15;;;;;;;19.53;47.89;99104.20;;;;-54
2020/12/31 15:04:07;;;;;;;2.97;2.39;;;;;;;19.55;47.90;99103.20;;;;-54
2020/12/31 15:07:07;;;;;;;2.48;2.28;;;;;;;19.56;47.81;99103.02;;;;-56
2020/12/31 15:10:07;;;;;;;2.82;2.39;;;;;;;19.58;48.01;99103.80;;;;-55
2020/12/31 15:13:07;;;;;;;2.65;2.32;;;;;;;19.58;47.93;99103.31;;;;-51
2020/12/31 15:16:07;;;;;;;2.76;2.42;;;;;;;19.59;48.07;99102.48;;;;-50
2020/12/31 15:19:07;;;;;;;2.52;2.30;;;;;;;19.61;48.15;99105.20;;;;-50
2020/12/31 15:22:07;;;;;;;2.48;2.28;;;;;;;19.63;48.14;99105.98;;;;-50
2020/12/31 15:25:07;;;;;;;2.40;2.18;;;;;;;19.67;48.15;99109.59;;;;-57
2020/12/31 15:28:07;;;;;;;3.02;2.07;;;;;;;19.66;48.16;99105.86;;;;-53
2020/12/31 15:31:09;;;;;;;2.64;2.43;;;;;;;19.67;48.13;99103.89;;;;-51
2020/12/31 15:34:07;;;;;;;2.39;2.19;;;;;;;19.69;48.11;99102.31;;;;-49
2020/12/31 15:37:07;;;;;;;2.31;2.11;;;;;;;19.68;48.01;99103.47;;;;-50
2020/12/31 15:40:07;;;;;;;2.57;2.30;;;;;;;19.70;48.14;99103.22;;;;-53
2020/12/31 15:43:07;;;;;;;2.28;2.09;;;;;;;19.71;48.15;99100.77;;;;-53
2020/12/31 15:46:08;;;;;;;3.17;2.21;;;;;;;19.72;48.33;99097.99;;;;-55
2020/12/31 15:49:07;;;;;;;2.60;2.18;;;;;;;19.72;48.19;99098.57;;;;-50
2020/12/31 15:52:07;;;;;;;2.44;2.24;;;;;;;19.73;48.17;99101.37;;;;-57
2020/12/31 15:55:07;;;;;;;2.25;2.05;;;;;;;19.75;48.29;99100.05;;;;-60
2020/12/31 15:58:07;;;;;;;2.35;2.11;;;;;;;19.74;48.38;99100.39;;;;-58
2020/12/31 16:01:07;;;;;;;2.29;2.09;;;;;;;19.76;48.32;99103.88;;;;-57
2020/12/31 16:04:08;;;;;;;2.91;2.27;;;;;;;19.76;48.59;99108.18;;;;-52
2020/12/31 16:07:07;;;;;;;2.30;2.10;;;;;;;19.77;48.64;99108.87;;;;-59
2020/12/31 16:10:07;;;;;;;2.35;2.15;;;;;;;19.78;48.53;99106.94;;;;-58
2020/12/31 16:13:07;;;;;;;2.32;2.12;;;;;;;19.76;48.49;99107.68;;;;-57
2020/12/31 16:16:07;;;;;;;3.25;2.21;;;;;;;19.76;48.41;99108.91;;;;-54
2020/12/31 16:19:07;;;;;;;2.30;2.10;;;;;;;19.77;48.33;99105.31;;;;-59
2020/12/31 16:22:07;;;;;;;2.68;2.21;;;;;;;19.77;48.54;99103.77;;;;-60
2020/12/31 16:25:07;;;;;;;2.43;2.23;;;;;;;19.77;48.54;99106.12;;;;-52
2020/12/31 16:28:07;;;;;;;2.37;2.17;;;;;;;19.76;48.46;99101.83;;;;-51
2020/12/31 16:31:07;;;;;;;2.29;2.09;;;;;;;19.76;48.41;99097.27;;;;-47
2020/12/31 16:34:07;;;;;;;3.03;2.29;;;;;;;19.76;48.33;99098.50;;;;-51
2020/12/31 16:37:07;;;;;;;2.45;2.25;;;;;;;19.77;48.34;99095.22;;;;-47
2020/12/31 16:40:07;;;;;;;2.39;2.15;;;;;;;19.77;48.48;99093.13;;;;-48
2020/12/31 16:43:07;;;;;;;2.42;2.22;;;;;;;19.76;48.54;99097.20;;;;-52
2020/12/31 16:46:07;;;;;;;3.09;2.24;;;;;;;19.75;48.46;99092.16;;;;-56
2020/12/31 16:49:07;;;;;;;3.59;2.15;;;;;;;19.75;48.51;99093.37;;;;-58
2020/12/31 16:52:07;;;;;;;3.43;2.40;;;;;;;19.72;47.76;99088.48;;;;-50
2020/12/31 16:55:07;;;;;;;3.45;2.43;;;;;;;19.69;47.49;99085.89;;;;-50